Time,TemperatureF,DewpointF,PressureIn,WindDirection,WindDirectionDegrees,WindSpeedMPH,WindSpeedGustMPH,Humidity,HourlyPrecipIn,Conditions,Clouds,dailyrainin,SoftwareType,DateUTC
2013-01-08 00:04:00,25.0,8.6,30.24,North,-999,0.0,0.0,49,0.00,,,-99.99,FreeWX 2.04,2013-01-08 05:04:00,
2013-01-08 00:14:00,25.0,8.6,30.24,North,-999,0.0,0.0,49,0.00,,,-99.99,FreeWX 2.04,2013-01-08 05:14:00,
2013-01-08 00:24:00,24.8,8.8,30.24,North,-999,0.0,0.0,50,0.00,,,-99.99,FreeWX 2.04,2013-01-08 05:24:00,
2013-01-08 00:34:00,24.6,8.6,30.24,North,-999,0.0,0.0,50,0.00,,,-99.99,FreeWX 2.04,2013-01-08 05:34:00,
2013-01-08 00:44:00,24.8,9.7,30.24,North,-999,0.0,0.0,52,0.00,,,-99.99,FreeWX 2.04,2013-01-08 05:44:00,
2013-01-08 00:54:00,24.6,10.0,30.24,North,-999,0.0,0.0,53,0.00,,,-99.99,FreeWX 2.04,2013-01-08 05:54:00,
2013-01-08 01:04:00,24.6,10.0,30.24,North,-999,0.0,0.0,53,0.00,,,-99.99,FreeWX 2.04,2013-01-08 06:04:00,
2013-01-08 01:14:00,24.6,10.0,30.24,North,-999,0.0,0.0,53,0.00,,,-99.99,FreeWX 2.04,2013-01-08 06:14:00,
2013-01-08 01:24:00,24.6,10.0,30.24,North,-999,0.0,0.0,53,0.00,,,-99.99,FreeWX 2.04,2013-01-08 06:24:00,
2013-01-08 01:34:00,24.4,9.9,30.24,North,-999,0.0,0.0,53,0.00,,,-99.99,FreeWX 2.04,2013-01-08 06:34:00,
2013-01-08 01:44:00,24.3,10.0,30.24,North,-999,0.0,0.0,54,0.00,,,-99.99,FreeWX 2.04,2013-01-08 06:44:00,
2013-01-08 01:54:00,24.3,10.0,30.24,North,-999,0.0,0.0,54,0.00,,,-99.99,FreeWX 2.04,2013-01-08 06:54:00,
2013-01-08 02:04:00,24.3,10.0,30.24,North,-999,0.0,0.0,54,0.00,,,-99.99,FreeWX 2.04,2013-01-08 07:04:00,
2013-01-08 02:14:00,24.1,9.9,30.24,North,-999,0.0,0.0,54,0.00,,,-99.99,FreeWX 2.04,2013-01-08 07:14:00,
2013-01-08 02:24:00,23.9,9.7,30.24,North,-999,0.0,0.0,54,0.00,,,-99.99,FreeWX 2.04,2013-01-08 07:24:00,
2013-01-08 02:34:00,23.9,10.0,30.24,North,-999,0.0,0.0,55,0.00,,,-99.99,FreeWX 2.04,2013-01-08 07:34:00,
2013-01-08 02:44:00,23.7,9.9,30.24,North,-999,0.0,0.0,55,0.00,,,-99.99,FreeWX 2.04,2013-01-08 07:44:00,
2013-01-08 02:54:00,23.5,9.9,30.24,North,-999,0.0,0.0,55,0.00,,,-99.99,FreeWX 2.04,2013-01-08 07:54:00,
2013-01-08 03:04:00,23.5,9.9,30.24,North,-999,0.0,0.0,55,0.00,,,-99.99,FreeWX 2.04,2013-01-08 08:04:00,
2013-01-08 03:14:00,23.5,9.9,30.24,North,-999,0.0,0.0,55,0.00,,,-99.99,FreeWX 2.04,2013-01-08 08:14:00,
2013-01-08 03:24:00,23.5,9.9,30.24,North,-999,0.0,0.0,55,0.00,,,-99.99,FreeWX 2.04,2013-01-08 08:24:00,
2013-01-08 03:34:00,23.5,9.9,30.27,North,-999,0.0,0.0,55,0.00,,,-99.99,FreeWX 2.04,2013-01-08 08:34:00,
2013-01-08 03:44:00,23.2,9.5,30.27,North,-999,0.0,0.0,55,0.00,,,-99.99,FreeWX 2.04,2013-01-08 08:44:00,
2013-01-08 03:54:00,23.0,9.3,30.27,North,-999,0.0,0.0,55,0.00,,,-99.99,FreeWX 2.04,2013-01-08 08:54:00,
2013-01-08 04:04:00,23.0,9.3,30.27,North,-999,0.0,0.0,55,0.00,,,-99.99,FreeWX 2.04,2013-01-08 09:04:00,
2013-01-08 04:14:00,23.0,9.3,30.27,North,-999,0.0,0.0,55,0.00,,,-99.99,FreeWX 2.04,2013-01-08 09:14:00,
2013-01-08 04:24:00,23.2,9.9,30.27,North,-999,0.0,0.0,56,0.00,,,-99.99,FreeWX 2.04,2013-01-08 09:24:00,
2013-01-08 04:34:00,23.2,9.9,30.27,North,-999,0.0,0.0,56,0.00,,,-99.99,FreeWX 2.04,2013-01-08 09:34:00,
2013-01-08 04:44:00,23.2,9.9,30.27,North,-999,0.0,0.0,56,0.00,,,-99.99,FreeWX 2.04,2013-01-08 09:44:00,
2013-01-08 04:54:00,23.0,9.7,30.27,North,-999,0.0,0.0,56,0.00,,,-99.99,FreeWX 2.04,2013-01-08 09:54:00,
2013-01-08 05:04:00,23.0,9.7,30.27,North,-999,0.0,0.0,56,0.00,,,-99.99,FreeWX 2.04,2013-01-08 10:04:00,
2013-01-08 05:14:00,23.0,10.0,30.27,North,-999,0.0,0.0,57,0.00,,,-99.99,FreeWX 2.04,2013-01-08 10:14:00,
2013-01-08 05:24:00,23.0,10.0,30.27,North,-999,0.0,0.0,57,0.00,,,-99.99,FreeWX 2.04,2013-01-08 10:24:00,
2013-01-08 05:34:00,23.0,10.0,30.27,North,-999,0.0,0.0,57,0.00,,,-99.99,FreeWX 2.04,2013-01-08 10:34:00,
2013-01-08 05:44:00,23.0,10.0,30.27,North,-999,0.0,0.0,57,0.00,,,-99.99,FreeWX 2.04,2013-01-08 10:44:00,
2013-01-08 05:54:00,22.8,9.5,30.27,North,-999,0.0,0.0,56,0.00,,,-99.99,FreeWX 2.04,2013-01-08 10:54:00,
2013-01-08 06:04:00,22.5,9.1,30.27,North,-999,0.0,0.0,56,0.00,,,-99.99,FreeWX 2.04,2013-01-08 11:04:00,
2013-01-08 06:14:00,22.5,9.1,30.27,North,-999,0.0,0.0,56,0.00,,,-99.99,FreeWX 2.04,2013-01-08 11:14:00,
2013-01-08 06:24:00,22.8,9.5,30.30,North,-999,0.0,0.0,56,0.00,,,-99.99,FreeWX 2.04,2013-01-08 11:24:00,
2013-01-08 06:34:00,22.6,9.3,30.30,North,-999,0.0,0.0,56,0.00,,,-99.99,FreeWX 2.04,2013-01-08 11:34:00,
2013-01-08 06:44:00,22.8,9.9,30.30,North,-999,0.0,0.0,57,0.00,,,-99.99,FreeWX 2.04,2013-01-08 11:44:00,
2013-01-08 06:54:00,22.8,9.5,30.30,North,-999,0.0,0.0,56,0.00,,,-99.99,FreeWX 2.04,2013-01-08 11:54:00,
2013-01-08 07:04:00,22.8,9.5,30.30,North,-999,0.0,0.0,56,0.00,,,-99.99,FreeWX 2.04,2013-01-08 12:04:00,
2013-01-08 07:14:00,22.8,9.5,30.30,North,-999,0.0,0.0,56,0.00,,,-99.99,FreeWX 2.04,2013-01-08 12:14:00,
2013-01-08 07:24:00,23.0,10.0,30.30,North,-999,0.0,0.0,57,0.00,,,-99.99,FreeWX 2.04,2013-01-08 12:24:00,
2013-01-08 07:34:00,23.0,10.0,30.33,North,-999,0.0,0.0,57,0.00,,,-99.99,FreeWX 2.04,2013-01-08 12:34:00,
2013-01-08 07:44:00,23.0,10.0,30.33,North,-999,0.0,0.0,57,0.00,,,-99.99,FreeWX 2.04,2013-01-08 12:44:00,
2013-01-08 07:54:00,23.4,10.4,30.33,North,-999,0.0,0.0,57,0.00,,,-99.99,FreeWX 2.04,2013-01-08 12:54:00,
2013-01-08 08:04:00,23.7,10.8,30.33,North,-999,0.0,0.0,57,0.00,,,-99.99,FreeWX 2.04,2013-01-08 13:04:00,
2013-01-08 08:14:00,23.9,10.9,30.33,North,-999,0.0,0.0,57,0.00,,,-99.99,FreeWX 2.04,2013-01-08 13:14:00,
2013-01-08 08:24:00,23.9,10.9,30.33,North,-999,0.0,0.0,57,0.00,,,-99.99,FreeWX 2.04,2013-01-08 13:24:00,
2013-01-08 08:34:00,24.4,11.5,30.33,North,-999,0.0,0.0,57,0.00,,,-99.99,FreeWX 2.04,2013-01-08 13:34:00,
2013-01-08 08:44:00,24.6,11.7,30.33,North,-999,0.0,0.0,57,0.00,,,-99.99,FreeWX 2.04,2013-01-08 13:44:00,
2013-01-08 08:54:00,25.2,12.0,30.33,North,-999,0.0,0.0,57,0.00,,,-99.99,FreeWX 2.04,2013-01-08 13:54:00,
2013-01-08 09:04:00,25.9,12.7,30.36,North,-999,0.0,0.0,57,0.00,,,-99.99,FreeWX 2.04,2013-01-08 14:04:00,
2013-01-08 09:14:00,27.1,14.4,30.36,North,-999,0.0,0.0,58,0.00,,,-99.99,FreeWX 2.04,2013-01-08 14:14:00,
2013-01-08 09:24:00,28.6,15.6,30.36,North,-999,0.0,0.0,58,0.00,,,-99.99,FreeWX 2.04,2013-01-08 14:24:00,
2013-01-08 09:34:00,30.2,17.2,30.36,North,-999,0.0,0.0,58,0.00,,,-99.99,FreeWX 2.04,2013-01-08 14:34:00,
2013-01-08 09:44:00,31.8,18.3,30.36,North,-999,0.0,0.0,57,0.00,,,-99.99,FreeWX 2.04,2013-01-08 14:44:00,
2013-01-08 09:54:00,33.1,19.0,30.36,North,-999,0.0,0.0,56,0.00,,,-99.99,FreeWX 2.04,2013-01-08 14:54:00,
2013-01-08 10:04:00,34.5,20.5,30.36,North,-999,0.0,0.0,56,0.00,,,-99.99,FreeWX 2.04,2013-01-08 15:04:00,
2013-01-08 10:14:00,36.3,22.1,30.36,North,351,2.0,4.9,56,0.00,,,-99.99,FreeWX 2.04,2013-01-08 15:14:00,
2013-01-08 10:24:00,37.4,21.9,30.36,North,351,1.0,3.6,53,0.00,,,-99.99,FreeWX 2.04,2013-01-08 15:24:00,
2013-01-08 10:34:00,38.5,21.6,30.36,North,352,1.0,5.4,50,0.00,,,-99.99,FreeWX 2.04,2013-01-08 15:34:00,
2013-01-08 10:44:00,39.7,21.2,30.36,North,352,1.0,5.4,47,0.00,,,-99.99,FreeWX 2.04,2013-01-08 15:44:00,
2013-01-08 10:54:00,40.5,18.7,30.36,NNW,348,2.0,4.5,41,0.00,,,-99.99,FreeWX 2.04,2013-01-08 15:54:00,
2013-01-08 11:04:00,41.0,17.4,30.36,NNW,348,2.0,5.8,38,0.00,,,-99.99,FreeWX 2.04,2013-01-08 16:04:00,
2013-01-08 11:14:00,42.3,18.5,30.33,NNW,334,2.0,5.4,38,0.00,,,-99.99,FreeWX 2.04,2013-01-08 16:14:00,
2013-01-08 11:25:00,44.1,15.4,30.33,NNW,333,3.0,8.3,31,0.00,,,-99.99,FreeWX 2.04,2013-01-08 16:25:00,
2013-01-08 11:35:00,45.7,14.5,30.33,North,351,3.0,6.3,28,0.00,,,-99.99,FreeWX 2.04,2013-01-08 16:35:00,
2013-01-08 11:45:00,46.6,14.4,30.33,North,10,4.0,6.9,27,0.00,,,-99.99,FreeWX 2.04,2013-01-08 16:45:00,
2013-01-08 11:55:00,46.4,11.7,30.33,North,357,4.0,8.3,24,0.00,,,-99.99,FreeWX 2.04,2013-01-08 16:55:00,
2013-01-08 12:05:00,46.2,14.2,30.33,NNW,342,3.0,7.4,27,0.00,,,-99.99,FreeWX 2.04,2013-01-08 17:05:00,
2013-01-08 12:15:00,47.7,12.7,30.33,North,351,2.0,5.8,24,0.00,,,-99.99,FreeWX 2.04,2013-01-08 17:15:00,
2013-01-08 12:25:00,48.7,13.6,30.33,NNW,345,3.0,6.9,24,0.00,,,-99.99,FreeWX 2.04,2013-01-08 17:25:00,
2013-01-08 12:35:00,49.3,10.9,30.30,NNW,347,3.0,6.7,21,0.00,,,-99.99,FreeWX 2.04,2013-01-08 17:35:00,
2013-01-08 12:45:00,50.0,11.7,30.30,North,5,3.0,6.9,21,0.00,,,-99.99,FreeWX 2.04,2013-01-08 17:45:00,
2013-01-08 12:55:00,50.5,12.0,30.30,North,353,4.0,6.9,21,0.00,,,-99.99,FreeWX 2.04,2013-01-08 17:55:00,
2013-01-08 13:05:00,51.6,12.9,30.30,North,351,4.0,6.9,21,0.00,,,-99.99,FreeWX 2.04,2013-01-08 18:05:00,
2013-01-08 13:15:00,52.5,13.8,30.27,NNE,12,4.0,7.8,21,0.00,,,-99.99,FreeWX 2.04,2013-01-08 18:15:00,
2013-01-08 13:25:00,53.1,13.1,30.27,NNE,25,5.0,8.3,20,0.00,,,-99.99,FreeWX 2.04,2013-01-08 18:25:00,
2013-01-08 13:35:00,53.1,13.1,30.27,NE,39,5.0,8.7,20,0.00,,,-99.99,FreeWX 2.04,2013-01-08 18:35:00,
2013-01-08 13:45:00,53.4,13.5,30.27,NNE,19,5.0,9.2,20,0.00,,,-99.99,FreeWX 2.04,2013-01-08 18:45:00,
2013-01-08 13:55:00,53.6,13.5,30.27,NE,51,6.0,11.0,20,0.00,,,-99.99,FreeWX 2.04,2013-01-08 18:55:00,
2013-01-08 14:05:00,53.8,13.6,30.27,NE,54,5.0,11.2,20,0.00,,,-99.99,FreeWX 2.04,2013-01-08 19:05:00,
2013-01-08 14:15:00,53.4,13.5,30.27,North,9,4.0,7.8,20,0.00,,,-99.99,FreeWX 2.04,2013-01-08 19:15:00,
2013-01-08 14:25:00,52.9,12.9,30.27,NNE,26,4.0,10.1,20,0.00,,,-99.99,FreeWX 2.04,2013-01-08 19:25:00,
2013-01-08 14:35:00,53.2,13.3,30.27,NNE,21,3.0,9.2,20,0.00,,,-99.99,FreeWX 2.04,2013-01-08 19:35:00,
2013-01-08 14:45:00,54.5,14.2,30.27,North,8,4.0,8.7,20,0.00,,,-99.99,FreeWX 2.04,2013-01-08 19:45:00,
2013-01-08 14:55:00,54.3,14.2,30.27,NNW,348,4.0,8.3,20,0.00,,,-99.99,FreeWX 2.04,2013-01-08 19:55:00,
2013-01-08 15:05:00,53.6,13.5,30.27,NNE,21,6.0,10.1,20,0.00,,,-99.99,FreeWX 2.04,2013-01-08 20:05:00,
2013-01-08 15:15:00,53.6,13.5,30.27,North,7,5.0,9.6,20,0.00,,,-99.99,FreeWX 2.04,2013-01-08 20:15:00,
2013-01-08 15:25:00,53.8,13.6,30.27,NE,36,4.0,7.4,20,0.00,,,-99.99,FreeWX 2.04,2013-01-08 20:25:00,
2013-01-08 15:35:00,53.6,13.5,30.27,North,1,4.0,8.3,20,0.00,,,-99.99,FreeWX 2.04,2013-01-08 20:35:00,
2013-01-08 15:45:00,53.1,13.1,30.27,North,354,4.0,9.6,20,0.00,,,-99.99,FreeWX 2.04,2013-01-08 20:45:00,
2013-01-08 15:55:00,52.7,12.7,30.27,North,359,4.0,9.2,20,0.00,,,-99.99,FreeWX 2.04,2013-01-08 20:55:00,
2013-01-08 16:05:00,52.3,13.6,30.27,North,352,3.0,8.7,21,0.00,,,-99.99,FreeWX 2.04,2013-01-08 21:05:00,
2013-01-08 16:15:00,51.8,13.1,30.27,North,359,3.0,7.8,21,0.00,,,-99.99,FreeWX 2.04,2013-01-08 21:15:00,
2013-01-08 16:25:00,50.9,12.4,30.27,NNW,332,1.0,4.9,21,0.00,,,-99.99,FreeWX 2.04,2013-01-08 21:25:00,
2013-01-08 16:35:00,50.5,12.0,30.27,North,11,2.0,6.7,21,0.00,,,-99.99,FreeWX 2.04,2013-01-08 21:35:00,
2013-01-08 16:45:00,50.7,12.2,30.27,North,0,1.0,5.8,21,0.00,,,-99.99,FreeWX 2.04,2013-01-08 21:45:00,
2013-01-08 16:55:00,50.2,11.8,30.27,North,353,2.0,6.7,21,0.00,,,-99.99,FreeWX 2.04,2013-01-08 21:55:00,
2013-01-08 17:05:00,49.6,11.3,30.24,North,351,1.0,4.5,21,0.00,,,-99.99,FreeWX 2.04,2013-01-08 22:05:00,
2013-01-08 17:15:00,49.1,10.9,30.24,North,-999,0.0,3.6,21,0.00,,,-99.99,FreeWX 2.04,2013-01-08 22:15:00,
2013-01-08 17:25:00,48.0,10.0,30.24,North,-999,0.0,0.0,21,0.00,,,-99.99,FreeWX 2.04,2013-01-08 22:25:00,
2013-01-08 17:35:00,47.1,10.2,30.24,North,-999,0.0,0.0,22,0.00,,,-99.99,FreeWX 2.04,2013-01-08 22:35:00,
2013-01-08 17:45:00,46.2,9.5,30.27,North,-999,0.0,0.0,22,0.00,,,-99.99,FreeWX 2.04,2013-01-08 22:45:00,
2013-01-08 17:55:00,45.0,8.4,30.27,North,-999,0.0,3.6,22,0.00,,,-99.99,FreeWX 2.04,2013-01-08 22:55:00,
2013-01-08 18:05:00,44.2,10.8,30.27,NW,309,2.0,3.6,25,0.00,,,-99.99,FreeWX 2.04,2013-01-08 23:05:00,
2013-01-08 18:25:00,42.8,12.0,30.24,North,-999,0.0,2.7,28,0.00,,,-99.99,FreeWX 2.04,2013-01-08 23:25:00,
2013-01-08 18:35:00,41.5,10.9,30.24,North,-999,0.0,0.0,28,0.00,,,-99.99,FreeWX 2.04,2013-01-08 23:35:00,
2013-01-08 18:45:00,40.5,10.0,30.24,North,-999,0.0,0.0,28,0.00,,,-99.99,FreeWX 2.04,2013-01-08 23:45:00,
2013-01-08 18:55:00,39.7,10.0,30.24,North,-999,0.0,0.0,29,0.00,,,-99.99,FreeWX 2.04,2013-01-08 23:55:00,
2013-01-08 19:05:00,38.8,11.5,30.24,North,-999,0.0,0.0,32,0.00,,,-99.99,FreeWX 2.04,2013-01-09 00:05:00,
2013-01-08 19:15:00,38.7,12.0,30.27,North,-999,0.0,0.0,33,0.00,,,-99.99,FreeWX 2.04,2013-01-09 00:15:00,
2013-01-08 19:25:00,38.1,11.7,30.27,North,-999,0.0,0.0,33,0.00,,,-99.99,FreeWX 2.04,2013-01-09 00:25:00,
2013-01-08 19:35:00,37.4,10.9,30.27,North,-999,0.0,0.0,33,0.00,,,-99.99,FreeWX 2.04,2013-01-09 00:35:00,
2013-01-08 19:45:00,37.2,12.2,30.27,NW,309,1.0,4.0,35,0.00,,,-99.99,FreeWX 2.04,2013-01-09 00:45:00,
2013-01-08 19:55:00,36.7,11.7,30.27,North,-999,0.0,0.0,35,0.00,,,-99.99,FreeWX 2.04,2013-01-09 00:55:00,
2013-01-08 20:05:00,35.8,11.5,30.27,North,-999,0.0,0.0,36,0.00,,,-99.99,FreeWX 2.04,2013-01-09 01:05:00,
2013-01-08 20:15:00,35.6,12.6,30.27,North,-999,0.0,0.0,38,0.00,,,-99.99,FreeWX 2.04,2013-01-09 01:15:00,
2013-01-08 20:25:00,35.1,12.6,30.27,North,-999,0.0,3.1,39,0.00,,,-99.99,FreeWX 2.04,2013-01-09 01:25:00,
2013-01-08 20:35:00,35.1,13.3,30.27,North,-999,0.0,2.7,40,0.00,,,-99.99,FreeWX 2.04,2013-01-09 01:35:00,
2013-01-08 20:45:00,34.7,13.5,30.27,North,-999,0.0,3.1,41,0.00,,,-99.99,FreeWX 2.04,2013-01-09 01:45:00,
2013-01-08 20:55:00,34.5,13.3,30.27,North,-999,0.0,0.0,41,0.00,,,-99.99,FreeWX 2.04,2013-01-09 01:55:00,
2013-01-08 21:05:00,34.0,12.7,30.27,North,-999,0.0,0.0,41,0.00,,,-99.99,FreeWX 2.04,2013-01-09 02:05:00,
2013-01-08 21:15:00,33.8,12.6,30.27,North,-999,0.0,0.0,41,0.00,,,-99.99,FreeWX 2.04,2013-01-09 02:15:00,
2013-01-08 21:25:00,33.4,12.9,30.27,North,-999,0.0,0.0,42,0.00,,,-99.99,FreeWX 2.04,2013-01-09 02:25:00,
2013-01-08 21:35:00,33.1,12.6,30.24,North,-999,0.0,0.0,42,0.00,,,-99.99,FreeWX 2.04,2013-01-09 02:35:00,
2013-01-08 21:45:00,32.9,12.9,30.27,North,-999,0.0,0.0,43,0.00,,,-99.99,FreeWX 2.04,2013-01-09 02:45:00,
2013-01-08 21:55:00,32.5,12.6,30.27,North,-999,0.0,0.0,43,0.00,,,-99.99,FreeWX 2.04,2013-01-09 02:55:00,
2013-01-08 22:06:00,32.5,13.1,30.24,North,-999,0.0,0.0,44,0.00,,,-99.99,FreeWX 2.04,2013-01-09 03:06:00,
2013-01-08 22:16:00,32.4,12.9,30.24,North,-999,0.0,0.0,44,0.00,,,-99.99,FreeWX 2.04,2013-01-09 03:16:00,
2013-01-08 22:26:00,32.0,12.6,30.24,North,-999,0.0,0.0,44,0.00,,,-99.99,FreeWX 2.04,2013-01-09 03:26:00,
2013-01-08 22:36:00,32.0,12.6,30.24,North,-999,0.0,0.0,44,0.00,,,-99.99,FreeWX 2.04,2013-01-09 03:36:00,
2013-01-08 22:46:00,31.8,12.4,30.24,North,-999,0.0,0.0,44,0.00,,,-99.99,FreeWX 2.04,2013-01-09 03:46:00,
2013-01-08 22:56:00,31.6,12.7,30.24,North,-999,0.0,0.0,45,0.00,,,-99.99,FreeWX 2.04,2013-01-09 03:56:00,
2013-01-08 23:06:00,31.5,12.6,30.24,North,-999,0.0,0.0,45,0.00,,,-99.99,FreeWX 2.04,2013-01-09 04:06:00,
2013-01-08 23:16:00,31.5,12.6,30.24,North,-999,0.0,0.0,45,0.00,,,-99.99,FreeWX 2.04,2013-01-09 04:16:00,
2013-01-08 23:26:00,31.5,13.6,30.24,North,-999,0.0,0.0,47,0.00,,,-99.99,FreeWX 2.04,2013-01-09 04:26:00,
2013-01-08 23:36:00,31.6,13.8,30.27,North,-999,0.0,0.0,47,0.00,,,-99.99,FreeWX 2.04,2013-01-09 04:36:00,
2013-01-08 23:46:00,31.5,13.6,30.24,North,-999,0.0,0.0,47,0.00,,,-99.99,FreeWX 2.04,2013-01-09 04:46:00,
2013-01-08 23:56:00,31.6,14.2,30.24,North,-999,0.0,0.0,48,0.00,,,-99.99,FreeWX 2.04,2013-01-09 04:56:00,